CheckWX is a tool to help pilots better visualize weather data.  It is not intended as a substitute for an official pre-flight weather briefing.

07:36:49 UTC

CYKG METAR
Kangiqsujuaq (Wakeham Bay) Airport
Kangiqsujuaq, Canada
Current

13 hours ago

CYKG 301900Z 23004KT 150V290 15SM FEW050 FEW250 M10/M19 A3043 RMK SC1CI1 SNW CVR/MED PACK/LAST STFD OBS/NXT OBS 311200 UTC SLP324
Observed
Mar-30 @ 19:00 UTC
Wind
  • 230° at 4 KTS
Visibility
15 SM
Flight Rules
VFR
Cloud Levels
  • Few at 5,000' AGL
  • Few at 25,000' AGL
Temperature
-10°C / 14°F
Dewpoint
-19°C / -2°F
Humidity
48%
Altimeter
30.43" Hg
Pressure
1030.52 hPa
Previous

14 hours ago

CYKG 301800Z 36009KT 15SM FEW030 M10/M17 A3039 RMK SC1 SC TR SLP310
Observed
Mar-30 @ 18:00 UTC
Wind
  • 360° at 9 KTS
Visibility
15 SM
Flight Rules
VFR
Cloud Levels
  • Few at 3,000' AGL
Temperature
-10°C / 14°F
Dewpoint
-17°C / 1°F
Humidity
57%
Altimeter
30.39" Hg
Pressure
1029.12 hPa
Previous

15 hours ago

CYKG 301700Z 28013KT 15SM FEW035 M10/M18 A3036 RMK SC1 SC TR PRESRR SLP301
Observed
Mar-30 @ 17:00 UTC
Wind
  • 280° at 13 KTS
Visibility
15 SM
Flight Rules
VFR
Cloud Levels
  • Few at 3,500' AGL
Temperature
-10°C / 14°F
Dewpoint
-18°C / 0°F
Humidity
52%
Altimeter
30.36" Hg
Pressure
1028.12 hPa